LGAV/ATH METAR and TAF weather

Enter ICAO airport designator
Station Type Date Time Source
LGAV METAR 2019/02/16 02:50 UTC NOAA

LGAV 160250Z 01016KT 9999 FEW012 SCT025 BKN070 06/02 Q1022 NOSIG


Station Type Date Time Source
LGAV Decoded METAR 2019/02/16 02:50 UTC NOAA

Athens Eleftherios Venizelos International Airport, Greece (LGAV) 37-56N 023-56E
Feb 15, 2019 - 09:50 PM EST / 2019.02.16 0250 UTC
Wind: from the N (010 degrees) at 18 MPH (16 KT):0
Visibility: greater than 7 mile(s):0
Sky conditions: mostly cloudy
Temperature: 42 F (6 C)
Dew Point: 35 F (2 C)
Relative Humidity: 75%
Pressure (altimeter): 30.18 in. Hg (1022 hPa)
ob: LGAV 160250Z 01016KT 9999 FEW012 SCT025 BKN070 06/02 Q1022 NOSIG
cycle: 3

Station Type Date Time Source
LGAV TAF 2019/02/15 18:12 UTC NOAA

TAF TAF LGAV 151700Z 1518/1618 01015G25KT 9999 FEW015 SCT030 BKN070 PROB40
TEMPO 1518/1610 5000 RA SCT015 BKN025 BKN070
BECMG 1518/1520 01020G35KT


Example: see airport list